Time;durP1;ratioP1;P1;durP2;ratioP2;P2;SDS_P1;SDS_P2;PMS_P1;PMS_P2;Temp;Humidity;BMP_temperature;BMP_pressure;BME280_temperature;BME280_humidity;BME280_pressure;Samples;Min_cycle;Max_cycle;Signal;HPM_P1;HPM_P2
2022/05/16 00:02:13;;;;;;;14.10;4.40;;;;;;;6.64;88.98;100402.61;104890;1273;75359;-70
2022/05/16 00:05:02;;;;;;;15.10;4.10;;;;;;;6.58;88.79;100404.90;104780;1273;69617;-72
2022/05/16 00:07:53;;;;;;;12.60;4.50;;;;;;;6.54;88.94;100409.52;105013;1273;74551;-72
2022/05/16 00:10:40;;;;;;;14.10;4.30;;;;;;;6.50;89.34;100409.55;104814;1273;60504;-72
2022/05/16 00:13:28;;;;;;;13.70;4.20;;;;;;;6.46;89.41;100405.34;104906;1273;60975;-71
2022/05/16 00:16:16;;;;;;;15.90;4.90;;;;;;;6.44;89.60;100407.23;105069;1273;72589;-71
2022/05/16 00:19:05;;;;;;;16.20;4.50;;;;;;;6.41;89.70;100403.54;105265;1273;69624;-70
2022/05/16 00:21:54;;;;;;;16.20;4.50;;;;;;;6.39;90.29;100403.65;104841;1273;74426;-70
2022/05/16 00:24:43;;;;;;;13.60;4.50;;;;;;;6.38;89.96;100405.80;104939;1273;60504;-72
2022/05/16 00:27:34;;;;;;;12.10;4.40;;;;;;;6.35;90.60;100408.61;104919;1274;60743;-73
2022/05/16 00:30:22;;;;;;;14.90;4.70;;;;;;;6.30;90.34;100402.38;104926;1272;74359;-72
2022/05/16 00:33:10;;;;;;;16.40;4.90;;;;;;;6.32;90.56;100409.30;104905;1273;67485;-72
2022/05/16 00:35:59;;;;;;;11.80;4.40;;;;;;;6.29;90.78;100410.86;105050;1273;72046;-68
2022/05/16 00:38:47;;;;;;;15.80;4.50;;;;;;;6.27;90.76;100410.46;104896;1273;60468;-71
2022/05/16 00:41:35;;;;;;;15.80;4.80;;;;;;;6.23;90.67;100408.56;104931;1272;60622;-67
2022/05/16 00:44:24;;;;;;;12.30;4.00;;;;;;;6.20;90.57;100414.38;104929;1273;75653;-65
2022/05/16 00:47:12;;;;;;;13.80;4.30;;;;;;;6.15;90.84;100415.70;104992;1273;67674;-69
2022/05/16 00:50:03;;;;;;;13.20;4.60;;;;;;;6.09;91.18;100411.60;104915;1273;73921;-69
2022/05/16 00:52:52;;;;;;;13.90;4.30;;;;;;;6.06;91.40;100412.46;105182;1273;60467;-70
2022/05/16 00:55:42;;;;;;;12.70;3.90;;;;;;;6.03;91.41;100412.98;104682;1274;60400;-69
2022/05/16 00:58:30;;;;;;;15.00;5.20;;;;;;;6.00;90.90;100410.30;104981;1273;74365;-69
2022/05/16 01:07:41;;;;;;;14.40;4.80;;;;;;;5.94;91.72;100415.18;104814;1273;60606;-71
2022/05/16 01:10:28;;;;;;;14.80;4.10;;;;;;;5.93;91.80;100413.63;104745;1273;61999;-71
2022/05/16 01:13:17;;;;;;;16.30;5.30;;;;;;;5.94;92.26;100410.95;104748;1273;73368;-70
2022/05/16 01:16:07;;;;;;;12.30;4.50;;;;;;;5.95;92.82;100410.55;104805;1273;68106;-70
2022/05/16 01:18:56;;;;;;;12.20;4.30;;;;;;;5.96;92.52;100413.69;104621;1273;72330;-70
2022/05/16 01:21:45;;;;;;;13.80;4.50;;;;;;;5.96;92.56;100412.77;104778;1273;60377;-70
2022/05/16 01:24:34;;;;;;;16.40;4.90;;;;;;;5.94;92.54;100416.92;104628;1274;61198;-69
2022/05/16 01:27:22;;;;;;;16.20;5.70;;;;;;;5.91;92.61;100414.13;105058;1273;75496;-71
2022/05/16 01:30:19;;;;;;;15.80;5.80;;;;;;;5.87;92.25;100420.13;104744;1273;67818;-70
2022/05/16 01:33:07;;;;;;;18.00;5.50;;;;;;;5.84;92.42;100417.63;104823;1273;74421;-69
2022/05/16 01:35:55;;;;;;;17.10;5.80;;;;;;;5.81;92.57;100412.52;104624;1275;60491;-71
2022/05/16 01:38:43;;;;;;;15.60;5.80;;;;;;;5.78;92.87;100407.05;104768;1274;61051;-70
2022/05/16 01:41:31;;;;;;;14.70;5.40;;;;;;;5.76;93.10;100407.31;105094;1273;75139;-70
2022/05/16 01:44:19;;;;;;;16.30;5.90;;;;;;;5.74;93.27;100409.34;104912;1273;68025;-69
2022/05/16 01:47:08;;;;;;;18.80;5.10;;;;;;;5.73;93.23;100411.16;104838;1273;73576;-71
2022/05/16 01:49:56;;;;;;;14.90;5.80;;;;;;;5.72;93.30;100407.38;104837;1273;60504;-73
2022/05/16 01:52:44;;;;;;;19.90;6.20;;;;;;;5.72;93.53;100411.94;104990;1273;60527;-72
2022/05/16 01:55:33;;;;;;;16.90;5.70;;;;;;;5.71;93.55;100411.98;104887;1273;74619;-71
2022/05/16 01:58:22;;;;;;;17.30;5.90;;;;;;;5.70;93.55;100412.71;105008;1272;68632;-74
2022/05/16 02:01:12;;;;;;;15.50;6.50;;;;;;;5.69;93.58;100410.99;104746;1273;73241;-74
2022/05/16 02:04:00;;;;;;;15.60;6.40;;;;;;;5.70;93.71;100410.09;104817;1273;60622;-70
2022/05/16 02:06:48;;;;;;;21.50;7.80;;;;;;;5.69;93.61;100412.07;104838;1273;60461;-69
2022/05/16 02:09:36;;;;;;;19.60;8.10;;;;;;;5.68;93.48;100412.12;104854;1274;75559;-71
2022/05/16 02:12:24;;;;;;;22.00;6.60;;;;;;;5.67;93.68;100412.90;104874;1273;68446;-71
2022/05/16 02:15:18;;;;;;;20.60;7.60;;;;;;;5.64;93.60;100415.66;104795;1273;73656;-70
2022/05/16 02:18:08;;;;;;;19.10;7.60;;;;;;;5.61;93.57;100415.46;104767;1274;62270;-69
2022/05/16 02:27:16;;;;;;;18.80;6.70;;;;;;;5.49;93.80;100415.40;104808;1274;68516;-69
2022/05/16 02:30:06;;;;;;;17.90;6.50;;;;;;;5.45;93.88;100415.39;104975;1273;73438;-70
2022/05/16 02:32:55;;;;;;;17.20;6.10;;;;;;;5.45;94.06;100417.36;104833;1273;60490;-69
2022/05/16 02:35:45;;;;;;;17.10;6.50;;;;;;;5.44;94.36;100420.55;104949;1274;60580;-71
2022/05/16 02:38:35;;;;;;;17.40;6.90;;;;;;;5.44;94.37;100419.67;104857;1273;75651;-70
2022/05/16 02:41:23;;;;;;;13.40;5.50;;;;;;;5.44;94.72;100414.56;104982;1273;67333;-68
2022/05/16 02:44:12;;;;;;;16.00;5.80;;;;;;;5.44;94.81;100414.58;105066;1274;71277;-72
2022/05/16 02:47:00;;;;;;;16.70;5.80;;;;;;;5.45;94.41;100414.02;104805;1274;60508;-69
2022/05/16 02:49:49;;;;;;;14.80;5.70;;;;;;;5.44;94.41;100412.63;104933;1274;61035;-70
2022/05/16 02:52:36;;;;;;;16.80;4.70;;;;;;;5.43;94.90;100412.69;104880;1273;73686;-70
2022/05/16 02:55:25;;;;;;;13.80;5.30;;;;;;;5.43;94.82;100411.84;103356;1274;1003820;-71
2022/05/16 02:58:13;;;;;;;14.50;5.00;;;;;;;5.44;95.23;100415.78;104977;1274;71278;-69
2022/05/16 03:01:02;;;;;;;17.30;5.40;;;;;;;5.46;95.56;100417.10;104793;1274;60475;-71
2022/05/16 03:03:51;;;;;;;12.90;4.90;;;;;;;5.41;95.96;100402.09;104933;1273;61563;-71
2022/05/16 03:06:39;;;;;;;17.70;5.60;;;;;;;5.50;96.30;100415.50;104904;1273;75654;-70
2022/05/16 03:09:28;;;;;;;19.20;5.60;;;;;;;5.53;96.07;100416.08;104873;1273;68607;-68
2022/05/16 03:12:16;;;;;;;11.30;5.40;;;;;;;5.58;96.11;100416.35;104965;1274;72314;-71
2022/05/16 03:15:04;;;;;;;16.30;6.30;;;;;;;5.64;95.95;100418.33;104807;1273;60331;-71
2022/05/16 03:17:52;;;;;;;15.50;5.40;;;;;;;5.71;95.72;100420.23;104785;1273;60482;-72
2022/05/16 03:20:40;;;;;;;12.70;5.10;;;;;;;5.77;95.00;100417.80;104884;1273;72120;-70
2022/05/16 03:23:28;;;;;;;16.70;5.80;;;;;;;5.82;94.80;100416.49;104954;1273;69756;-69
2022/05/16 03:26:16;;;;;;;14.80;6.20;;;;;;;5.89;94.73;100421.10;105084;1274;73865;-71
2022/05/16 03:29:11;;;;;;;14.30;4.80;;;;;;;5.94;94.18;100420.80;104683;1273;60498;-71
2022/05/16 03:31:59;;;;;;;14.40;5.10;;;;;;;6.01;93.90;100418.73;104874;1273;61861;-70
2022/05/16 03:34:53;;;;;;;13.30;4.70;;;;;;;6.07;93.71;100419.48;104766;1273;74342;-71
2022/05/16 03:37:41;;;;;;;13.50;4.50;;;;;;;6.12;93.41;100420.58;104993;1273;67154;-72
2022/05/16 03:40:42;;;;;;;17.10;5.00;;;;;;;6.19;93.51;100416.87;104815;1271;72712;-72
2022/05/16 03:43:30;;;;;;;16.90;4.60;;;;;;;6.29;93.29;100419.48;104802;1273;60448;-71
2022/05/16 03:46:19;;;;;;;14.60;4.20;;;;;;;6.42;93.18;100418.49;105006;1273;60467;-72
2022/05/16 03:49:07;;;;;;;17.30;4.70;;;;;;;6.57;93.02;100415.86;104786;1273;74901;-73
2022/05/16 03:51:56;;;;;;;14.80;4.00;;;;;;;6.73;92.70;100408.48;104787;1273;69144;-73
2022/05/16 03:54:44;;;;;;;11.30;3.70;;;;;;;6.89;91.98;100407.95;104802;1273;72087;-72
2022/05/16 03:57:32;;;;;;;12.20;3.70;;;;;;;7.06;91.61;100407.34;105435;1273;60486;-72
2022/05/16 04:00:20;;;;;;;14.90;4.70;;;;;;;7.22;91.28;100400.91;105408;1271;61028;-72
2022/05/16 04:03:08;;;;;;;11.50;3.70;;;;;;;7.41;90.63;100404.08;104922;1271;74071;-72
2022/05/16 04:05:56;;;;;;;10.30;3.40;;;;;;;7.59;89.57;100403.67;105468;1271;68188;-71
2022/05/16 04:08:44;;;;;;;12.60;3.20;;;;;;;7.81;88.49;100406.77;104906;1271;73547;-71
2022/05/16 04:11:34;;;;;;;12.20;3.10;;;;;;;8.02;87.52;100407.11;104963;1271;60389;-71
2022/05/16 04:14:25;;;;;;;9.60;2.50;;;;;;;8.25;86.60;100404.98;105220;1271;60850;-72
2022/05/16 04:17:13;;;;;;;9.60;2.90;;;;;;;8.51;85.25;100406.56;104902;1271;73516;-72
2022/05/16 04:20:01;;;;;;;9.50;2.40;;;;;;;8.78;83.92;100406.42;104970;1271;67236;-71
2022/05/16 04:22:49;;;;;;;8.80;2.80;;;;;;;9.05;82.37;100406.61;104895;1274;72049;-74
2022/05/16 04:25:40;;;;;;;9.70;2.70;;;;;;;9.30;81.03;100409.08;105151;1271;60471;-75
2022/05/16 04:28:28;;;;;;;9.20;2.60;;;;;;;9.50;80.39;100407.88;105415;1271;60473;-72
2022/05/16 04:31:16;;;;;;;11.30;2.60;;;;;;;9.69;79.18;100408.59;104960;1273;75017;-75
2022/05/16 04:34:09;;;;;;;10.10;2.60;;;;;;;9.85;78.22;100409.59;105108;1273;69668;-71
2022/05/16 04:36:57;;;;;;;12.40;3.60;;;;;;;10.02;77.15;100408.61;105001;1273;74492;-73
2022/05/16 04:39:45;;;;;;;9.60;2.70;;;;;;;10.21;76.97;100410.29;104992;1273;60930;-73
2022/05/16 04:42:46;;;;;;;10.50;3.30;;;;;;;10.44;75.42;100407.80;104928;1274;60685;-67
2022/05/16 04:45:35;;;;;;;15.30;6.00;;;;;;;10.77;74.49;100405.08;104789;1273;74756;-66
2022/05/16 04:48:24;;;;;;;15.70;6.10;;;;;;;11.11;72.17;100404.37;104764;1273;68574;-68
2022/05/16 04:51:12;;;;;;;12.30;4.10;;;;;;;11.49;71.32;100405.45;105077;1273;72343;-64
2022/05/16 04:54:00;;;;;;;9.40;2.90;;;;;;;11.91;68.71;100403.27;104808;1273;60315;-68
2022/05/16 04:56:51;;;;;;;12.30;4.70;;;;;;;12.39;66.84;100400.45;105353;1273;60494;-67
2022/05/16 04:59:39;;;;;;;8.90;2.90;;;;;;;12.64;65.20;100401.48;105347;1273;74591;-66
2022/05/16 05:02:27;;;;;;;13.50;5.10;;;;;;;12.85;64.73;100401.89;104929;1273;68554;-65
2022/05/16 05:05:16;;;;;;;10.80;3.80;;;;;;;13.00;64.02;100406.70;104967;1271;73419;-69
2022/05/16 05:08:05;;;;;;;10.10;3.10;;;;;;;13.16;63.83;100406.86;104853;1271;60833;-65
2022/05/16 05:17:12;;;;;;;10.20;2.60;;;;;;;13.46;61.89;100405.44;105127;1271;67843;-68
2022/05/16 05:20:00;;;;;;;11.20;3.00;;;;;;;13.52;62.21;100412.03;104894;1271;73988;-69
2022/05/16 05:22:49;;;;;;;12.50;2.30;;;;;;;13.62;61.22;100412.45;105607;1271;60596;-66
2022/05/16 05:25:36;;;;;;;8.70;2.60;;;;;;;13.83;60.19;100414.23;106292;1271;61937;-68
2022/05/16 05:28:25;;;;;;;12.30;2.90;;;;;;;14.00;60.17;100410.66;105888;1271;74726;-70
2022/05/16 05:31:18;;;;;;;10.10;2.30;;;;;;;14.38;59.03;100413.98;104825;1271;65502;-68
2022/05/16 05:34:06;;;;;;;10.30;3.40;;;;;;;15.36;56.53;100405.16;105118;1271;73427;-70
2022/05/16 05:36:58;;;;;;;12.20;2.30;;;;;;;16.54;53.07;100403.37;105713;1271;60523;-64
2022/05/16 05:39:46;;;;;;;8.70;2.60;;;;;;;17.29;50.70;100400.34;105039;1271;60366;-70
2022/05/16 05:42:36;;;;;;;9.60;2.80;;;;;;;17.67;49.31;100393.64;105051;1271;72649;-66
2022/05/16 05:45:24;;;;;;;9.50;2.80;;;;;;;18.30;47.03;100399.81;105233;1271;68720;-69
2022/05/16 05:48:13;;;;;;;11.10;3.60;;;;;;;19.73;43.35;100393.46;105242;1271;72879;-72
2022/05/16 05:51:01;;;;;;;9.70;3.30;;;;;;;20.36;41.51;100389.20;105051;1271;60552;-72
2022/05/16 05:53:50;;;;;;;10.10;2.70;;;;;;;21.33;38.77;100379.48;105053;1273;60503;-69
2022/05/16 05:56:38;;;;;;;8.20;2.80;;;;;;;21.51;36.66;100376.59;105109;1271;74020;-68
2022/05/16 05:59:26;;;;;;;8.80;2.30;;;;;;;22.02;35.53;100373.95;105171;1271;69489;-73
2022/05/16 06:02:14;;;;;;;7.60;2.10;;;;;;;23.00;33.43;100375.13;105065;1271;72839;-68
2022/05/16 06:05:02;;;;;;;8.80;2.00;;;;;;;23.52;32.04;100366.55;104989;1273;60464;-69
2022/05/16 06:07:50;;;;;;;7.40;1.60;;;;;;;24.02;30.78;100362.35;104995;1273;60354;-69
2022/05/16 06:10:38;;;;;;;8.10;1.90;;;;;;;24.21;31.04;100358.79;104979;1273;74208;-69
2022/05/16 06:13:27;;;;;;;9.00;2.30;;;;;;;24.68;30.06;100355.31;105042;1273;66811;-68
2022/05/16 06:16:15;;;;;;;8.40;2.20;;;;;;;25.30;29.72;100356.42;105009;1273;72601;-70
2022/05/16 06:19:02;;;;;;;7.70;2.00;;;;;;;25.84;28.39;100351.08;104901;1273;60435;-69
2022/05/16 06:21:50;;;;;;;8.50;2.20;;;;;;;26.31;27.66;100349.73;105065;1273;60462;-71
2022/05/16 06:27:46;;;;;;;9.80;2.10;;;;;;;26.54;27.07;100344.42;105081;1273;67268;-67
2022/05/16 06:30:36;;;;;;;8.70;1.90;;;;;;;27.11;27.08;100344.47;104839;1273;71987;-68
2022/05/16 06:33:26;;;;;;;9.10;2.10;;;;;;;27.80;26.40;100339.20;105058;1273;60889;-68
2022/05/16 06:36:16;;;;;;;8.60;1.70;;;;;;;28.37;25.39;100336.58;105053;1273;60465;-70
2022/05/16 06:39:04;;;;;;;7.70;2.00;;;;;;;28.84;24.87;100334.34;105084;1273;74780;-69
2022/05/16 06:41:52;;;;;;;8.90;1.90;;;;;;;29.47;23.85;100339.33;105137;1273;66835;-71
2022/05/16 06:44:41;;;;;;;10.00;2.10;;;;;;;30.02;22.97;100336.75;105246;1273;70632;-70
2022/05/16 06:47:28;;;;;;;7.60;2.00;;;;;;;30.67;22.41;100339.43;105087;1273;60469;-72
2022/05/16 06:50:16;;;;;;;7.90;1.90;;;;;;;31.01;21.45;100336.70;105149;1273;60504;-70
2022/05/16 06:53:06;;;;;;;7.20;1.50;;;;;;;31.34;20.97;100336.76;104867;1273;74064;-70
2022/05/16 06:55:56;;;;;;;7.90;1.70;;;;;;;31.70;21.08;100331.14;105122;1273;66829;-69
2022/05/16 06:58:44;;;;;;;9.60;2.40;;;;;;;32.10;20.11;100325.36;104699;1273;73230;-70
2022/05/16 07:01:32;;;;;;;8.70;1.90;;;;;;;32.30;20.17;100322.43;104936;1273;60728;-70
2022/05/16 07:04:21;;;;;;;8.70;1.50;;;;;;;32.58;19.70;100330.70;105924;1271;60545;-70
2022/05/16 07:07:09;;;;;;;8.20;1.70;;;;;;;32.76;19.32;100334.48;105396;1271;75418;-71
2022/05/16 07:09:57;;;;;;;8.30;1.80;;;;;;;33.08;19.14;100331.20;104980;1271;69092;-70
2022/05/16 07:12:45;;;;;;;8.20;1.80;;;;;;;33.39;18.54;100334.17;105514;1273;72067;-71
2022/05/16 07:15:33;;;;;;;7.60;1.70;;;;;;;33.44;18.80;100338.33;105308;1271;60474;-70
2022/05/16 07:18:22;;;;;;;7.20;1.60;;;;;;;33.48;18.19;100335.84;104994;1271;61544;-70
2022/05/16 07:21:12;;;;;;;9.00;1.60;;;;;;;33.51;18.78;100339.60;105088;1271;74635;-73
2022/05/16 07:24:00;;;;;;;6.40;1.50;;;;;;;33.51;18.26;100341.02;105037;1271;68027;-73
2022/05/16 07:29:54;;;;;;;8.10;1.40;;;;;;;33.72;18.21;100342.98;105284;1271;60467;-71
2022/05/16 07:32:46;;;;;;;9.20;2.00;;;;;;;33.45;18.04;100347.16;105223;1271;62021;-76
2022/05/16 07:35:35;;;;;;;8.40;1.80;;;;;;;32.98;18.34;100352.17;105221;1271;74724;-70
2022/05/16 07:38:25;;;;;;;8.40;1.60;;;;;;;33.09;18.36;100348.35;104929;1271;69679;-70
2022/05/16 07:41:13;;;;;;;8.10;1.60;;;;;;;33.58;18.09;100355.26;104915;1271;71969;-69
2022/05/16 07:44:01;;;;;;;7.10;1.70;;;;;;;33.66;17.67;100352.00;105096;1271;60347;-70
2022/05/16 07:46:49;;;;;;;8.20;1.70;;;;;;;33.65;17.90;100351.34;105429;1271;60444;-69
2022/05/16 07:49:37;;;;;;;6.70;1.30;;;;;;;33.63;17.41;100349.27;105157;1271;72807;-70
2022/05/16 07:52:27;;;;;;;7.30;1.50;;;;;;;33.62;17.70;100350.32;105003;1271;69697;-71
2022/05/16 07:55:18;;;;;;;8.80;1.50;;;;;;;33.86;17.70;100341.88;105127;1271;74705;-68
2022/05/16 07:58:10;;;;;;;8.10;1.50;;;;;;;33.90;17.30;100338.96;105201;1272;60359;-71
2022/05/16 08:00:59;;;;;;;5.90;1.40;;;;;;;33.58;17.38;100341.41;104959;1272;62208;-70
2022/05/16 08:03:47;;;;;;;6.80;1.30;;;;;;;33.45;17.23;100346.61;105113;1271;74024;-70
2022/05/16 08:06:35;;;;;;;6.10;1.20;;;;;;;33.21;17.71;100346.04;104888;1271;65842;-73
2022/05/16 08:12:34;;;;;;;7.80;1.50;;;;;;;31.71;19.02;100355.23;104963;1271;60590;-70
2022/05/16 08:15:23;;;;;;;6.90;1.30;;;;;;;30.58;19.90;100360.65;104956;1271;60538;-68
2022/05/16 08:18:12;;;;;;;9.10;1.30;;;;;;;30.58;20.49;100359.91;104948;1271;74145;-69
2022/05/16 08:21:00;;;;;;;6.10;1.20;;;;;;;30.74;19.74;100360.05;104983;1271;68722;-71
2022/05/16 08:23:49;;;;;;;7.00;1.50;;;;;;;31.18;19.64;100357.32;105040;1271;73549;-70
2022/05/16 08:26:37;;;;;;;8.10;1.40;;;;;;;31.40;19.31;100356.31;105307;1271;61009;-71
2022/05/16 08:29:25;;;;;;;7.10;1.40;;;;;;;31.44;19.15;100354.29;105062;1271;60554;-69
2022/05/16 08:32:16;;;;;;;7.00;1.50;;;;;;;31.86;18.96;100345.56;104830;1274;73949;-69
2022/05/16 08:35:08;;;;;;;6.50;1.60;;;;;;;31.68;18.56;100354.35;105086;1271;66887;-71
2022/05/16 08:41:09;;;;;;;6.40;1.10;;;;;;;30.22;20.00;100359.67;105222;1272;60396;-70
2022/05/16 08:44:07;;;;;;;6.50;1.40;;;;;;;30.27;19.62;100362.36;105304;1274;62346;-71
2022/05/16 08:47:28;;;;;;;7.10;1.30;;;;;;;30.27;19.32;100355.27;104989;1271;75404;-69
2022/05/16 08:50:42;;;;;;;6.70;1.30;;;;;;;30.87;19.49;100354.14;105195;1271;68040;-75
2022/05/16 08:53:43;;;;;;;6.70;1.10;;;;;;;31.24;19.21;100352.64;105335;1271;72888;-72
2022/05/16 08:56:35;;;;;;;7.50;1.50;;;;;;;30.23;19.80;100355.30;105163;1271;60475;-70
2022/05/16 08:59:26;;;;;;;7.20;1.40;;;;;;;30.33;19.18;100349.02;105137;1271;61568;-75
2022/05/16 09:02:24;;;;;;;5.60;1.20;;;;;;;29.98;18.91;100350.67;105334;1271;75571;-69
2022/05/16 09:05:36;;;;;;;6.30;1.20;;;;;;;28.40;20.20;100358.80;105325;1271;68127;-71
2022/05/16 09:08:52;;;;;;;5.60;1.00;;;;;;;26.79;22.07;100364.60;105064;1271;287748;-70
2022/05/16 09:12:06;;;;;;;6.90;1.60;;;;;;;25.49;23.48;100360.36;105080;1271;60495;-67
2022/05/16 09:15:51;;;;;;;5.60;1.40;;;;;;;26.07;23.55;100358.15;105107;1271;62015;-70
2022/05/16 09:19:28;;;;;;;7.70;1.50;;;;;;;27.36;21.24;100357.97;105417;1271;75580;-69
2022/05/16 09:23:07;;;;;;;5.90;1.30;;;;;;;28.51;20.64;100361.99;105148;1271;68493;-68
2022/05/16 09:26:43;;;;;;;6.80;1.10;;;;;;;29.69;18.99;100357.55;105060;1271;72613;-68
2022/05/16 09:29:39;;;;;;;5.70;1.00;;;;;;;30.23;18.49;100358.65;104910;1272;60392;-69
2022/05/16 09:32:33;;;;;;;6.40;1.20;;;;;;;30.17;18.64;100357.65;104914;1271;60376;-71
2022/05/16 09:35:47;;;;;;;6.30;1.50;;;;;;;30.09;18.68;100358.03;105050;1271;74500;-71
2022/05/16 09:38:43;;;;;;;6.50;1.30;;;;;;;29.49;19.37;100355.45;105169;1271;69636;-70
2022/05/16 09:41:55;;;;;;;5.90;1.40;;;;;;;29.45;19.68;100359.57;104854;1271;73461;-70
2022/05/16 09:45:02;;;;;;;6.70;1.30;;;;;;;29.13;19.98;100362.55;105113;1271;60586;-70
2022/05/16 09:47:50;;;;;;;8.10;1.50;;;;;;;28.03;21.18;100368.57;104970;1271;60487;-70
2022/05/16 09:50:38;;;;;;;6.50;1.40;;;;;;;26.94;21.25;100372.67;105049;1271;74551;-71
2022/05/16 09:53:43;;;;;;;7.60;1.40;;;;;;;26.77;22.32;100374.12;105183;1271;69787;-70
2022/05/16 09:57:02;;;;;;;5.50;1.00;;;;;;;27.90;21.14;100365.98;104883;1271;73107;-70
2022/05/16 09:59:58;;;;;;;12.00;1.60;;;;;;;28.20;21.97;100370.08;105639;1271;60575;-69
2022/05/16 10:03:30;;;;;;;15.20;1.90;;;;;;;27.33;23.40;100371.94;105508;1271;60477;-70
2022/05/16 10:06:30;;;;;;;7.60;1.70;;;;;;;27.35;23.21;100364.33;105329;1271;73921;-72
2022/05/16 10:09:33;;;;;;;6.00;1.40;;;;;;;28.36;22.02;100356.36;105231;1271;68782;-70
2022/05/16 10:12:25;;;;;;;9.50;2.20;;;;;;;29.04;22.02;100360.23;105140;1272;72242;-73
2022/05/16 10:15:13;;;;;;;8.10;2.30;;;;;;;29.03;23.13;100360.27;104949;1271;60591;-73
2022/05/16 10:18:05;;;;;;;10.50;2.40;;;;;;;28.46;23.91;100363.65;105066;1271;60516;-70
2022/05/16 10:21:10;;;;;;;11.90;3.00;;;;;;;27.32;25.19;100365.44;105041;1271;75547;-70
2022/05/16 10:23:59;;;;;;;9.50;2.50;;;;;;;26.14;26.82;100372.02;104865;1274;68668;-72
2022/05/16 10:26:51;;;;;;;11.90;2.90;;;;;;;25.29;28.10;100376.66;104814;1271;73008;-71
2022/05/16 10:29:48;;;;;;;9.70;2.60;;;;;;;24.87;28.95;100385.77;104918;1274;60585;-70
2022/05/16 10:36:22;;;;;;;11.10;2.70;;;;;;;26.88;26.96;100382.61;105032;1271;74556;-69
2022/05/16 10:39:16;;;;;;;9.30;2.60;;;;;;;28.13;25.82;100370.60;105108;1271;68556;-71
2022/05/16 10:42:16;;;;;;;8.70;2.70;;;;;;;29.16;24.20;100366.52;104830;1271;72870;-68
2022/05/16 10:45:21;;;;;;;9.80;3.10;;;;;;;30.11;23.35;100364.55;104861;1271;60536;-70
2022/05/16 10:48:51;;;;;;;11.00;2.50;;;;;;;31.03;22.58;100362.73;105090;1271;60492;-71
2022/05/16 10:52:04;;;;;;;8.10;1.80;;;;;;;31.99;19.99;100360.05;104767;1272;75683;-72
2022/05/16 10:54:51;;;;;;;9.80;1.70;;;;;;;32.70;19.32;100356.63;105288;1274;67489;-72
2022/05/16 10:57:55;;;;;;;6.70;1.60;;;;;;;33.23;18.68;100351.36;104897;1271;73457;-73
2022/05/16 11:01:32;;;;;;;9.20;1.80;;;;;;;33.39;17.88;100346.31;105008;1271;60549;-70
2022/05/16 11:05:05;;;;;;;6.60;1.70;;;;;;;33.27;17.92;100351.17;105086;1271;61384;-70
2022/05/16 11:11:59;;;;;;;6.10;1.40;;;;;;;32.77;17.65;100336.88;105491;1271;67996;-69
2022/05/16 11:15:26;;;;;;;6.70;1.60;;;;;;;32.10;18.16;100328.62;105476;1271;70656;-72
2022/05/16 11:19:07;;;;;;;7.00;1.20;;;;;;;31.20;19.02;100330.80;105158;1274;60463;-73
2022/05/16 11:22:28;;;;;;;7.10;1.70;;;;;;;30.19;20.35;100333.52;104868;1271;60810;-71
2022/05/16 11:25:27;;;;;;;7.00;2.00;;;;;;;29.64;21.78;100335.62;105183;1271;75143;-71
2022/05/16 11:29:19;;;;;;;7.80;1.60;;;;;;;29.21;21.54;100335.85;104999;1271;68339;-69
2022/05/16 11:32:30;;;;;;;6.50;1.40;;;;;;;28.60;22.37;100335.79;105098;1271;74278;-71
2022/05/16 11:35:55;;;;;;;6.50;1.20;;;;;;;28.17;21.20;100336.48;104714;1272;60514;-68
2022/05/16 11:39:23;;;;;;;5.90;1.10;;;;;;;27.65;21.97;100334.10;104740;1271;61380;-68
2022/05/16 11:42:35;;;;;;;6.80;1.40;;;;;;;26.87;21.85;100340.13;104836;1271;75502;-70
2022/05/16 11:46:04;;;;;;;5.60;0.80;;;;;;;26.07;21.78;100343.60;104887;1274;68367;-70
2022/05/16 11:49:18;;;;;;;5.30;0.90;;;;;;;25.22;21.44;100342.51;104844;1271;72942;-69
2022/05/16 11:52:52;;;;;;;4.30;0.90;;;;;;;24.53;19.71;100340.94;105183;1271;60784;-70
2022/05/16 12:02:16;;;;;;;7.40;1.20;;;;;;;23.24;25.73;100339.89;104836;1271;67319;-70
2022/05/16 12:05:13;;;;;;;5.40;1.20;;;;;;;22.85;25.61;100338.27;105051;1271;73942;-70
2022/05/16 12:08:24;;;;;;;7.90;1.50;;;;;;;22.55;26.23;100343.45;104952;1276;60525;-70
2022/05/16 12:11:19;;;;;;;7.20;1.40;;;;;;;22.27;27.19;100346.52;104567;1278;60599;-69
2022/05/16 12:14:28;;;;;;;6.50;1.30;;;;;;;21.98;27.96;100349.81;104623;1276;74549;-70
2022/05/16 12:17:27;;;;;;;6.00;1.30;;;;;;;21.67;28.72;100352.11;104714;1277;68018;-71
2022/05/16 12:20:14;;;;;;;6.40;1.20;;;;;;;21.61;27.71;100344.02;105009;1277;74430;-69
2022/05/16 12:23:06;;;;;;;7.90;1.20;;;;;;;21.52;28.54;100341.58;104827;1274;60511;-69
2022/05/16 12:25:59;;;;;;;7.40;1.40;;;;;;;21.43;29.31;100342.80;104685;1274;60413;-69
2022/05/16 12:29:09;;;;;;;6.20;1.30;;;;;;;21.37;31.26;100347.36;104720;1274;74364;-67
2022/05/16 12:31:57;;;;;;;7.40;1.40;;;;;;;21.25;31.88;100344.50;104511;1275;67482;-69
2022/05/16 12:34:48;;;;;;;6.40;1.80;;;;;;;21.17;32.29;100341.83;104713;1274;71790;-70
2022/05/16 12:37:40;;;;;;;7.60;1.80;;;;;;;21.19;33.04;100342.08;104825;1274;60545;-69
2022/05/16 12:40:53;;;;;;;7.90;1.60;;;;;;;21.23;33.20;100349.93;105139;1271;60470;-72
2022/05/16 12:44:19;;;;;;;7.30;1.60;;;;;;;21.27;33.12;100346.41;105178;1271;75603;-71
2022/05/16 12:48:13;;;;;;;6.70;1.40;;;;;;;21.24;33.15;100344.75;105189;1271;68110;-73
2022/05/16 12:51:51;;;;;;;6.00;1.50;;;;;;;21.14;32.53;100348.77;105362;1271;73097;-71
2022/05/16 12:54:50;;;;;;;7.40;2.00;;;;;;;20.75;31.27;100347.91;104847;1281;59955;-74
2022/05/16 12:57:59;;;;;;;6.10;1.50;;;;;;;20.54;31.28;100347.98;104579;1279;60512;-68
2022/05/16 13:01:10;;;;;;;6.30;1.30;;;;;;;20.53;32.06;100340.05;104703;1279;72526;-73
2022/05/16 13:04:41;;;;;;;7.70;1.60;;;;;;;20.55;32.44;100344.05;104862;1279;69617;-72
2022/05/16 13:07:39;;;;;;;9.50;1.80;;;;;;;20.49;32.86;100336.36;104551;1279;72751;-69
2022/05/16 13:10:40;;;;;;;6.90;1.50;;;;;;;20.47;33.81;100335.73;104536;1281;60442;-68
2022/05/16 13:14:18;;;;;;;6.40;1.60;;;;;;;20.55;34.35;100341.41;105191;1280;60601;-72
2022/05/16 13:17:30;;;;;;;7.80;1.50;;;;;;;20.48;34.07;100339.73;104977;1279;71670;-67
2022/05/16 13:20:29;;;;;;;6.00;1.40;;;;;;;20.39;33.41;100336.23;104504;1279;68036;-70
2022/05/16 13:23:20;;;;;;;7.80;1.50;;;;;;;20.28;33.81;100337.88;104553;1281;74456;-68
2022/05/16 13:29:23;;;;;;;4.80;1.10;;;;;;;20.09;29.57;100334.02;104191;1279;60582;-71
2022/05/16 13:32:19;;;;;;;6.80;1.50;;;;;;;20.00;30.47;100329.66;104483;1273;74685;-63
2022/05/16 13:35:12;;;;;;;10.70;1.40;;;;;;;20.02;32.99;100327.45;104998;1271;65757;-68
2022/05/16 13:38:04;;;;;;;7.50;1.70;;;;;;;20.07;33.22;100326.69;104915;1271;73483;-66
2022/05/16 13:40:54;;;;;;;8.20;1.50;;;;;;;20.12;33.43;100326.73;104681;1271;60465;-64
2022/05/16 13:43:42;;;;;;;5.80;1.40;;;;;;;20.14;33.78;100325.70;104726;1271;60470;-64
2022/05/16 13:46:33;;;;;;;6.40;1.20;;;;;;;20.17;34.32;100322.64;104982;1271;75780;-69
2022/05/16 13:49:21;;;;;;;7.40;1.30;;;;;;;20.15;33.82;100331.72;104810;1271;69355;-68
2022/05/16 13:52:21;;;;;;;7.90;1.30;;;;;;;20.16;34.35;100327.84;104930;1271;73570;-71
2022/05/16 13:55:13;;;;;;;6.30;1.40;;;;;;;20.15;34.65;100330.84;104799;1271;60587;-70
2022/05/16 13:58:08;;;;;;;7.90;1.40;;;;;;;20.09;33.41;100337.25;104936;1271;60568;-66
2022/05/16 14:01:21;;;;;;;6.90;1.40;;;;;;;20.08;33.32;100333.06;104995;1271;74233;-67
2022/05/16 14:04:15;;;;;;;6.30;1.10;;;;;;;20.02;31.40;100334.61;105027;1273;68619;-72
2022/05/16 14:07:19;;;;;;;7.50;1.20;;;;;;;19.92;31.03;100332.42;104915;1273;72713;-66
2022/05/16 14:10:14;;;;;;;6.50;1.40;;;;;;;19.72;32.78;100332.38;104901;1273;60535;-66
2022/05/16 14:13:09;;;;;;;5.90;1.40;;;;;;;19.64;32.92;100339.27;104660;1274;61978;-67
2022/05/16 14:16:14;;;;;;;6.30;1.60;;;;;;;19.46;33.29;100335.54;104712;1273;72817;-68